sensor_id;sensor_type;location;lat;lon;timestamp;P1;durP1;ratioP1;P2;durP2;ratioP2
77625;SDS011;66794;43.764;10.436;2023-02-26T00:00:43;51.13;;;23.05;;
77625;SDS011;66794;43.764;10.436;2023-02-26T00:03:08;52.47;;;23.02;;
77625;SDS011;66794;43.764;10.436;2023-02-26T00:05:33;38.45;;;19.63;;
77625;SDS011;66794;43.764;10.436;2023-02-26T00:07:59;46.65;;;18.63;;
77625;SDS011;66794;43.764;10.436;2023-02-26T00:10:24;35.53;;;19.88;;
77625;SDS011;66794;43.764;10.436;2023-02-26T00:12:50;36.05;;;18.20;;
77625;SDS011;66794;43.764;10.436;2023-02-26T00:15:16;42.55;;;20.52;;
77625;SDS011;66794;43.764;10.436;2023-02-26T00:17:59;42.13;;;19.13;;
77625;SDS011;66794;43.764;10.436;2023-02-26T00:20:26;34.70;;;18.63;;
77625;SDS011;66794;43.764;10.436;2023-02-26T00:22:51;43.75;;;19.83;;
77625;SDS011;66794;43.764;10.436;2023-02-26T00:25:17;38.05;;;20.35;;
77625;SDS011;66794;43.764;10.436;2023-02-26T00:27:43;43.13;;;20.73;;
77625;SDS011;66794;43.764;10.436;2023-02-26T00:30:09;51.47;;;26.85;;
77625;SDS011;66794;43.764;10.436;2023-02-26T00:32:35;90.63;;;52.30;;
77625;SDS011;66794;43.764;10.436;2023-02-26T00:35:03;50.42;;;26.63;;
77625;SDS011;66794;43.764;10.436;2023-02-26T00:42:54;60.50;;;28.05;;
77625;SDS011;66794;43.764;10.436;2023-02-26T00:45:20;60.70;;;29.35;;
77625;SDS011;66794;43.764;10.436;2023-02-26T00:50:17;62.58;;;32.92;;
77625;SDS011;66794;43.764;10.436;2023-02-26T00:55:08;69.20;;;33.95;;
77625;SDS011;66794;43.764;10.436;2023-02-26T00:57:34;75.53;;;34.55;;
77625;SDS011;66794;43.764;10.436;2023-02-26T00:59:59;71.72;;;36.30;;
77625;SDS011;66794;43.764;10.436;2023-02-26T01:02:25;67.43;;;35.65;;
77625;SDS011;66794;43.764;10.436;2023-02-26T01:04:51;76.95;;;38.28;;
77625;SDS011;66794;43.764;10.436;2023-02-26T01:07:17;80.45;;;37.33;;
77625;SDS011;66794;43.764;10.436;2023-02-26T01:09:47;85.43;;;40.05;;
77625;SDS011;66794;43.764;10.436;2023-02-26T01:12:13;79.15;;;38.88;;
77625;SDS011;66794;43.764;10.436;2023-02-26T01:14:39;77.93;;;38.55;;
77625;SDS011;66794;43.764;10.436;2023-02-26T01:24:53;74.18;;;37.45;;
77625;SDS011;66794;43.764;10.436;2023-02-26T01:27:25;74.85;;;38.92;;
77625;SDS011;66794;43.764;10.436;2023-02-26T01:29:51;76.82;;;36.50;;
77625;SDS011;66794;43.764;10.436;2023-02-26T01:37:56;57.97;;;26.60;;
77625;SDS011;66794;43.764;10.436;2023-02-26T01:43:31;46.60;;;20.95;;
77625;SDS011;66794;43.764;10.436;2023-02-26T01:48:57;52.25;;;22.63;;
77625;SDS011;66794;43.764;10.436;2023-02-26T01:51:43;46.47;;;23.38;;
77625;SDS011;66794;43.764;10.436;2023-02-26T01:54:20;53.13;;;24.75;;
77625;SDS011;66794;43.764;10.436;2023-02-26T01:56:55;50.07;;;24.60;;
77625;SDS011;66794;43.764;10.436;2023-02-26T01:59:24;46.63;;;25.38;;
77625;SDS011;66794;43.764;10.436;2023-02-26T02:01:55;48.97;;;24.65;;
77625;SDS011;66794;43.764;10.436;2023-02-26T02:04:22;48.40;;;26.33;;
77625;SDS011;66794;43.764;10.436;2023-02-26T02:06:48;42.30;;;24.08;;
77625;SDS011;66794;43.764;10.436;2023-02-26T02:09:14;51.95;;;25.35;;
77625;SDS011;66794;43.764;10.436;2023-02-26T02:15:04;50.00;;;23.05;;
77625;SDS011;66794;43.764;10.436;2023-02-26T02:17:40;47.47;;;23.33;;
77625;SDS011;66794;43.764;10.436;2023-02-26T02:26:26;48.08;;;24.67;;
77625;SDS011;66794;43.764;10.436;2023-02-26T02:32:05;45.22;;;22.98;;
77625;SDS011;66794;43.764;10.436;2023-02-26T02:37:17;48.85;;;24.80;;
77625;SDS011;66794;43.764;10.436;2023-02-26T02:39:54;52.55;;;25.75;;
77625;SDS011;66794;43.764;10.436;2023-02-26T02:45:16;52.00;;;26.30;;
77625;SDS011;66794;43.764;10.436;2023-02-26T02:47:47;46.22;;;25.13;;
77625;SDS011;66794;43.764;10.436;2023-02-26T02:50:20;52.78;;;25.63;;
77625;SDS011;66794;43.764;10.436;2023-02-26T02:52:54;46.92;;;24.98;;
77625;SDS011;66794;43.764;10.436;2023-02-26T02:55:26;52.03;;;23.75;;
77625;SDS011;66794;43.764;10.436;2023-02-26T03:00:30;60.92;;;26.35;;
77625;SDS011;66794;43.764;10.436;2023-02-26T03:03:49;58.03;;;26.98;;
77625;SDS011;66794;43.764;10.436;2023-02-26T03:05:58;53.60;;;24.75;;
77625;SDS011;66794;43.764;10.436;2023-02-26T03:08:26;54.35;;;24.50;;
77625;SDS011;66794;43.764;10.436;2023-02-26T03:10:54;50.63;;;24.00;;
77625;SDS011;66794;43.764;10.436;2023-02-26T03:13:20;43.95;;;22.63;;
77625;SDS011;66794;43.764;10.436;2023-02-26T03:24:23;41.33;;;22.10;;
77625;SDS011;66794;43.764;10.436;2023-02-26T03:27:17;46.72;;;21.70;;
77625;SDS011;66794;43.764;10.436;2023-02-26T03:29:50;49.30;;;22.13;;
77625;SDS011;66794;43.764;10.436;2023-02-26T03:32:24;41.45;;;19.50;;
77625;SDS011;66794;43.764;10.436;2023-02-26T03:34:58;39.28;;;18.23;;
77625;SDS011;66794;43.764;10.436;2023-02-26T03:37:47;31.83;;;15.48;;
77625;SDS011;66794;43.764;10.436;2023-02-26T03:40:20;33.83;;;15.38;;
77625;SDS011;66794;43.764;10.436;2023-02-26T03:42:56;36.65;;;15.63;;
77625;SDS011;66794;43.764;10.436;2023-02-26T03:45:32;35.10;;;14.98;;
77625;SDS011;66794;43.764;10.436;2023-02-26T03:47:59;35.30;;;14.60;;
77625;SDS011;66794;43.764;10.436;2023-02-26T03:50:34;34.17;;;14.40;;
77625;SDS011;66794;43.764;10.436;2023-02-26T03:53:08;32.13;;;13.75;;
77625;SDS011;66794;43.764;10.436;2023-02-26T03:58:27;27.92;;;13.88;;
77625;SDS011;66794;43.764;10.436;2023-02-26T04:00:56;32.17;;;14.38;;
77625;SDS011;66794;43.764;10.436;2023-02-26T04:03:27;29.17;;;13.88;;
77625;SDS011;66794;43.764;10.436;2023-02-26T04:05:53;25.85;;;11.48;;
77625;SDS011;66794;43.764;10.436;2023-02-26T04:08:20;23.58;;;10.60;;
77625;SDS011;66794;43.764;10.436;2023-02-26T04:10:50;22.92;;;9.13;;
77625;SDS011;66794;43.764;10.436;2023-02-26T04:13:18;20.92;;;9.90;;
77625;SDS011;66794;43.764;10.436;2023-02-26T04:15:44;27.30;;;11.52;;
77625;SDS011;66794;43.764;10.436;2023-02-26T04:18:09;29.90;;;10.52;;
77625;SDS011;66794;43.764;10.436;2023-02-26T04:20:35;22.15;;;10.30;;
77625;SDS011;66794;43.764;10.436;2023-02-26T04:23:00;28.48;;;10.73;;
77625;SDS011;66794;43.764;10.436;2023-02-26T04:25:26;27.02;;;9.77;;
77625;SDS011;66794;43.764;10.436;2023-02-26T04:27:51;18.35;;;9.32;;
77625;SDS011;66794;43.764;10.436;2023-02-26T04:30:17;24.45;;;10.00;;
77625;SDS011;66794;43.764;10.436;2023-02-26T04:32:43;29.55;;;10.60;;
77625;SDS011;66794;43.764;10.436;2023-02-26T04:35:08;22.77;;;10.82;;
77625;SDS011;66794;43.764;10.436;2023-02-26T04:37:33;65.97;;;36.50;;
77625;SDS011;66794;43.764;10.436;2023-02-26T04:39:59;28.08;;;12.18;;
77625;SDS011;66794;43.764;10.436;2023-02-26T04:42:24;22.83;;;12.20;;
77625;SDS011;66794;43.764;10.436;2023-02-26T04:44:50;26.42;;;11.60;;
77625;SDS011;66794;43.764;10.436;2023-02-26T04:47:15;29.13;;;11.68;;
77625;SDS011;66794;43.764;10.436;2023-02-26T04:49:41;31.13;;;12.80;;
77625;SDS011;66794;43.764;10.436;2023-02-26T04:52:06;35.50;;;15.43;;
77625;SDS011;66794;43.764;10.436;2023-02-26T04:54:32;43.92;;;19.08;;
77625;SDS011;66794;43.764;10.436;2023-02-26T04:56:57;45.80;;;22.77;;
77625;SDS011;66794;43.764;10.436;2023-02-26T04:59:22;39.25;;;17.27;;
77625;SDS011;66794;43.764;10.436;2023-02-26T05:01:48;49.72;;;20.60;;
77625;SDS011;66794;43.764;10.436;2023-02-26T05:04:13;40.70;;;16.63;;
77625;SDS011;66794;43.764;10.436;2023-02-26T05:06:39;33.78;;;14.55;;
77625;SDS011;66794;43.764;10.436;2023-02-26T05:09:04;31.45;;;15.05;;
77625;SDS011;66794;43.764;10.436;2023-02-26T05:11:30;31.02;;;14.07;;
77625;SDS011;66794;43.764;10.436;2023-02-26T05:13:55;24.83;;;12.25;;
77625;SDS011;66794;43.764;10.436;2023-02-26T05:16:21;28.17;;;14.00;;
77625;SDS011;66794;43.764;10.436;2023-02-26T05:18:46;36.42;;;15.02;;
77625;SDS011;66794;43.764;10.436;2023-02-26T05:21:12;34.20;;;15.48;;
77625;SDS011;66794;43.764;10.436;2023-02-26T05:23:37;42.60;;;15.95;;
77625;SDS011;66794;43.764;10.436;2023-02-26T05:26:03;46.78;;;18.10;;
77625;SDS011;66794;43.764;10.436;2023-02-26T05:28:28;31.70;;;18.30;;
77625;SDS011;66794;43.764;10.436;2023-02-26T05:30:55;44.15;;;20.65;;
77625;SDS011;66794;43.764;10.436;2023-02-26T05:33:21;39.05;;;18.40;;
77625;SDS011;66794;43.764;10.436;2023-02-26T05:35:47;39.50;;;19.00;;
77625;SDS011;66794;43.764;10.436;2023-02-26T05:38:13;35.75;;;17.75;;
77625;SDS011;66794;43.764;10.436;2023-02-26T05:40:38;40.42;;;17.98;;
77625;SDS011;66794;43.764;10.436;2023-02-26T05:43:04;40.45;;;18.13;;
77625;SDS011;66794;43.764;10.436;2023-02-26T05:45:29;40.88;;;17.70;;
77625;SDS011;66794;43.764;10.436;2023-02-26T05:47:55;37.10;;;17.45;;
77625;SDS011;66794;43.764;10.436;2023-02-26T05:50:20;39.08;;;18.17;;
77625;SDS011;66794;43.764;10.436;2023-02-26T05:52:45;44.28;;;19.33;;
77625;SDS011;66794;43.764;10.436;2023-02-26T05:55:11;46.30;;;19.83;;
77625;SDS011;66794;43.764;10.436;2023-02-26T05:57:37;48.33;;;24.20;;
77625;SDS011;66794;43.764;10.436;2023-02-26T06:00:03;53.88;;;24.50;;
77625;SDS011;66794;43.764;10.436;2023-02-26T06:02:30;62.53;;;28.63;;
77625;SDS011;66794;43.764;10.436;2023-02-26T06:04:56;57.35;;;24.35;;
77625;SDS011;66794;43.764;10.436;2023-02-26T06:07:21;46.33;;;20.00;;
77625;SDS011;66794;43.764;10.436;2023-02-26T06:09:48;46.83;;;21.60;;
77625;SDS011;66794;43.764;10.436;2023-02-26T06:12:14;70.50;;;27.92;;
77625;SDS011;66794;43.764;10.436;2023-02-26T06:14:39;66.88;;;32.00;;
77625;SDS011;66794;43.764;10.436;2023-02-26T06:17:05;72.95;;;34.33;;
77625;SDS011;66794;43.764;10.436;2023-02-26T06:19:30;61.15;;;28.27;;
77625;SDS011;66794;43.764;10.436;2023-02-26T06:21:56;53.97;;;23.20;;
77625;SDS011;66794;43.764;10.436;2023-02-26T06:24:21;58.20;;;24.98;;
77625;SDS011;66794;43.764;10.436;2023-02-26T06:26:47;54.38;;;23.35;;
77625;SDS011;66794;43.764;10.436;2023-02-26T06:29:13;60.53;;;25.10;;
77625;SDS011;66794;43.764;10.436;2023-02-26T06:31:38;57.85;;;25.10;;
77625;SDS011;66794;43.764;10.436;2023-02-26T06:34:04;56.25;;;25.73;;
77625;SDS011;66794;43.764;10.436;2023-02-26T06:36:29;50.17;;;23.88;;
77625;SDS011;66794;43.764;10.436;2023-02-26T06:38:55;80.88;;;29.20;;
77625;SDS011;66794;43.764;10.436;2023-02-26T06:41:20;59.42;;;25.83;;
77625;SDS011;66794;43.764;10.436;2023-02-26T06:43:46;52.25;;;25.40;;
77625;SDS011;66794;43.764;10.436;2023-02-26T06:46:11;42.10;;;21.92;;
77625;SDS011;66794;43.764;10.436;2023-02-26T06:48:36;46.72;;;22.48;;
77625;SDS011;66794;43.764;10.436;2023-02-26T06:51:02;47.17;;;23.48;;
77625;SDS011;66794;43.764;10.436;2023-02-26T06:53:27;54.05;;;24.08;;
77625;SDS011;66794;43.764;10.436;2023-02-26T06:55:53;43.03;;;19.90;;
77625;SDS011;66794;43.764;10.436;2023-02-26T06:58:19;42.45;;;19.02;;
77625;SDS011;66794;43.764;10.436;2023-02-26T07:00:45;40.72;;;19.25;;
77625;SDS011;66794;43.764;10.436;2023-02-26T07:03:12;37.92;;;18.45;;
77625;SDS011;66794;43.764;10.436;2023-02-26T07:05:39;41.08;;;18.80;;
77625;SDS011;66794;43.764;10.436;2023-02-26T07:08:05;43.75;;;18.15;;
77625;SDS011;66794;43.764;10.436;2023-02-26T07:10:32;42.83;;;18.67;;
77625;SDS011;66794;43.764;10.436;2023-02-26T07:12:58;40.03;;;18.00;;
77625;SDS011;66794;43.764;10.436;2023-02-26T07:15:24;33.20;;;17.70;;
77625;SDS011;66794;43.764;10.436;2023-02-26T07:17:49;34.45;;;17.63;;
77625;SDS011;66794;43.764;10.436;2023-02-26T07:20:15;46.78;;;18.80;;
77625;SDS011;66794;43.764;10.436;2023-02-26T07:22:42;44.95;;;17.98;;
77625;SDS011;66794;43.764;10.436;2023-02-26T07:25:08;40.95;;;17.95;;
77625;SDS011;66794;43.764;10.436;2023-02-26T07:27:34;44.50;;;18.30;;
77625;SDS011;66794;43.764;10.436;2023-02-26T07:30:00;43.35;;;18.00;;
77625;SDS011;66794;43.764;10.436;2023-02-26T07:32:26;40.22;;;19.15;;
77625;SDS011;66794;43.764;10.436;2023-02-26T07:34:52;43.53;;;19.33;;
77625;SDS011;66794;43.764;10.436;2023-02-26T07:37:17;40.65;;;17.67;;
77625;SDS011;66794;43.764;10.436;2023-02-26T07:39:43;35.42;;;18.70;;
77625;SDS011;66794;43.764;10.436;2023-02-26T07:42:08;48.28;;;18.70;;
77625;SDS011;66794;43.764;10.436;2023-02-26T07:44:34;40.80;;;19.38;;
77625;SDS011;66794;43.764;10.436;2023-02-26T07:47:00;46.92;;;19.58;;
77625;SDS011;66794;43.764;10.436;2023-02-26T07:49:25;37.97;;;18.25;;
77625;SDS011;66794;43.764;10.436;2023-02-26T07:51:51;48.10;;;20.50;;
77625;SDS011;66794;43.764;10.436;2023-02-26T07:54:16;6.32;;;1.85;;
77625;SDS011;66794;43.764;10.436;2023-02-26T07:56:42;6.50;;;0.95;;
77625;SDS011;66794;43.764;10.436;2023-02-26T07:59:08;6.90;;;1.05;;
77625;SDS011;66794;43.764;10.436;2023-02-26T08:01:34;5.50;;;1.30;;
77625;SDS011;66794;43.764;10.436;2023-02-26T08:04:00;2.83;;;0.80;;
77625;SDS011;66794;43.764;10.436;2023-02-26T08:06:26;3.53;;;0.77;;
77625;SDS011;66794;43.764;10.436;2023-02-26T08:08:51;4.40;;;0.80;;
77625;SDS011;66794;43.764;10.436;2023-02-26T08:11:17;3.90;;;0.60;;
77625;SDS011;66794;43.764;10.436;2023-02-26T08:13:42;2.85;;;0.63;;
77625;SDS011;66794;43.764;10.436;2023-02-26T08:16:07;6.43;;;0.80;;
77625;SDS011;66794;43.764;10.436;2023-02-26T08:18:33;1.75;;;0.40;;
77625;SDS011;66794;43.764;10.436;2023-02-26T08:20:59;2.03;;;0.35;;
77625;SDS011;66794;43.764;10.436;2023-02-26T08:23:24;0.85;;;0.20;;
77625;SDS011;66794;43.764;10.436;2023-02-26T08:25:57;1.48;;;0.22;;
77625;SDS011;66794;43.764;10.436;2023-02-26T08:28:24;0.28;;;0.10;;
77625;SDS011;66794;43.764;10.436;2023-02-26T08:30:53;0.40;;;0.22;;
77625;SDS011;66794;43.764;10.436;2023-02-26T08:33:18;0.82;;;0.30;;
77625;SDS011;66794;43.764;10.436;2023-02-26T08:35:44;0.35;;;0.20;;
77625;SDS011;66794;43.764;10.436;2023-02-26T08:38:09;1.63;;;0.40;;
77625;SDS011;66794;43.764;10.436;2023-02-26T08:40:35;0.90;;;0.20;;
77625;SDS011;66794;43.764;10.436;2023-02-26T08:43:00;0.20;;;0.00;;
77625;SDS011;66794;43.764;10.436;2023-02-26T08:45:28;0.20;;;0.20;;
77625;SDS011;66794;43.764;10.436;2023-02-26T08:47:54;1.90;;;0.20;;
77625;SDS011;66794;43.764;10.436;2023-02-26T08:50:19;0.43;;;0.30;;
77625;SDS011;66794;43.764;10.436;2023-02-26T08:52:45;0.95;;;0.45;;
77625;SDS011;66794;43.764;10.436;2023-02-26T08:55:11;0.35;;;0.20;;
77625;SDS011;66794;43.764;10.436;2023-02-26T08:57:36;0.20;;;0.20;;
77625;SDS011;66794;43.764;10.436;2023-02-26T09:00:02;0.40;;;0.20;;
77625;SDS011;66794;43.764;10.436;2023-02-26T09:02:29;0.10;;;0.10;;
77625;SDS011;66794;43.764;10.436;2023-02-26T09:04:54;0.43;;;0.10;;
77625;SDS011;66794;43.764;10.436;2023-02-26T09:07:20;0.50;;;0.30;;
77625;SDS011;66794;43.764;10.436;2023-02-26T09:09:45;1.75;;;0.30;;
77625;SDS011;66794;43.764;10.436;2023-02-26T09:12:11;0.85;;;0.20;;
77625;SDS011;66794;43.764;10.436;2023-02-26T09:14:36;1.08;;;0.10;;
77625;SDS011;66794;43.764;10.436;2023-02-26T09:17:02;0.38;;;0.20;;
77625;SDS011;66794;43.764;10.436;2023-02-26T09:19:27;1.38;;;0.10;;
77625;SDS011;66794;43.764;10.436;2023-02-26T09:21:53;0.30;;;0.20;;
77625;SDS011;66794;43.764;10.436;2023-02-26T09:24:18;0.10;;;0.10;;
77625;SDS011;66794;43.764;10.436;2023-02-26T09:26:43;0.10;;;0.10;;
77625;SDS011;66794;43.764;10.436;2023-02-26T09:29:09;0.00;;;0.00;;
77625;SDS011;66794;43.764;10.436;2023-02-26T09:31:35;0.22;;;0.13;;
77625;SDS011;66794;43.764;10.436;2023-02-26T09:34:01;0.68;;;0.30;;
77625;SDS011;66794;43.764;10.436;2023-02-26T09:36:26;0.73;;;0.30;;
77625;SDS011;66794;43.764;10.436;2023-02-26T09:38:52;1.55;;;0.30;;
77625;SDS011;66794;43.764;10.436;2023-02-26T09:41:22;0.10;;;0.10;;
77625;SDS011;66794;43.764;10.436;2023-02-26T09:43:59;0.75;;;0.20;;
77625;SDS011;66794;43.764;10.436;2023-02-26T09:49:18;0.60;;;0.30;;
77625;SDS011;66794;43.764;10.436;2023-02-26T09:52:04;1.25;;;0.22;;
77625;SDS011;66794;43.764;10.436;2023-02-26T09:54:43;0.35;;;0.20;;
77625;SDS011;66794;43.764;10.436;2023-02-26T09:57:16;0.57;;;0.22;;
77625;SDS011;66794;43.764;10.436;2023-02-26T09:59:55;1.05;;;0.20;;
77625;SDS011;66794;43.764;10.436;2023-02-26T10:13:09;1.67;;;0.60;;
77625;SDS011;66794;43.764;10.436;2023-02-26T10:15:46;1.75;;;0.57;;
77625;SDS011;66794;43.764;10.436;2023-02-26T10:18:20;0.93;;;0.30;;
77625;SDS011;66794;43.764;10.436;2023-02-26T10:23:40;0.68;;;0.40;;
77625;SDS011;66794;43.764;10.436;2023-02-26T10:28:55;2.50;;;0.70;;
77625;SDS011;66794;43.764;10.436;2023-02-26T10:31:42;2.50;;;0.60;;
77625;SDS011;66794;43.764;10.436;2023-02-26T10:37:28;1.00;;;0.60;;
77625;SDS011;66794;43.764;10.436;2023-02-26T10:42:50;4.20;;;0.50;;
77625;SDS011;66794;43.764;10.436;2023-02-26T10:45:27;3.35;;;0.40;;
77625;SDS011;66794;43.764;10.436;2023-02-26T10:48:08;0.65;;;0.38;;
77625;SDS011;66794;43.764;10.436;2023-02-26T10:50:55;2.75;;;0.43;;
77625;SDS011;66794;43.764;10.436;2023-02-26T10:53:22;1.70;;;0.43;;
77625;SDS011;66794;43.764;10.436;2023-02-26T10:58:31;0.95;;;0.30;;
77625;SDS011;66794;43.764;10.436;2023-02-26T11:00:57;1.95;;;0.30;;
77625;SDS011;66794;43.764;10.436;2023-02-26T11:03:28;1.23;;;0.52;;
77625;SDS011;66794;43.764;10.436;2023-02-26T11:05:56;0.50;;;0.30;;
77625;SDS011;66794;43.764;10.436;2023-02-26T11:08:24;1.75;;;0.30;;
77625;SDS011;66794;43.764;10.436;2023-02-26T11:13:19;1.60;;;0.22;;
77625;SDS011;66794;43.764;10.436;2023-02-26T11:15:46;0.43;;;0.20;;
77625;SDS011;66794;43.764;10.436;2023-02-26T11:18:18;2.25;;;0.40;;
77625;SDS011;66794;43.764;10.436;2023-02-26T11:20:48;0.52;;;0.25;;
77625;SDS011;66794;43.764;10.436;2023-02-26T11:23:17;0.43;;;0.20;;
77625;SDS011;66794;43.764;10.436;2023-02-26T11:25:46;0.30;;;0.25;;
77625;SDS011;66794;43.764;10.436;2023-02-26T11:28:23;1.52;;;0.30;;
77625;SDS011;66794;43.764;10.436;2023-02-26T11:30:54;0.60;;;0.22;;
77625;SDS011;66794;43.764;10.436;2023-02-26T11:35:47;3.00;;;0.35;;
77625;SDS011;66794;43.764;10.436;2023-02-26T11:38:18;0.88;;;0.25;;
77625;SDS011;66794;43.764;10.436;2023-02-26T11:40:48;0.20;;;0.10;;
77625;SDS011;66794;43.764;10.436;2023-02-26T11:43:18;0.30;;;0.13;;
77625;SDS011;66794;43.764;10.436;2023-02-26T11:45:52;2.10;;;0.30;;
77625;SDS011;66794;43.764;10.436;2023-02-26T11:48:23;2.60;;;0.10;;
77625;SDS011;66794;43.764;10.436;2023-02-26T11:50:53;0.70;;;0.20;;
77625;SDS011;66794;43.764;10.436;2023-02-26T11:53:35;1.77;;;0.30;;
77625;SDS011;66794;43.764;10.436;2023-02-26T11:58:50;2.15;;;0.30;;
77625;SDS011;66794;43.764;10.436;2023-02-26T12:01:20;1.00;;;0.25;;
77625;SDS011;66794;43.764;10.436;2023-02-26T12:03:51;5.03;;;0.38;;
77625;SDS011;66794;43.764;10.436;2023-02-26T12:06:18;1.48;;;0.40;;
77625;SDS011;66794;43.764;10.436;2023-02-26T12:08:46;0.52;;;0.30;;
77625;SDS011;66794;43.764;10.436;2023-02-26T12:22:08;0.68;;;0.20;;
77625;SDS011;66794;43.764;10.436;2023-02-26T12:25:00;3.70;;;0.40;;
77625;SDS011;66794;43.764;10.436;2023-02-26T12:38:27;2.13;;;0.45;;
77625;SDS011;66794;43.764;10.436;2023-02-26T12:44:16;0.55;;;0.20;;
77625;SDS011;66794;43.764;10.436;2023-02-26T12:52:09;3.00;;;0.38;;
77625;SDS011;66794;43.764;10.436;2023-02-26T12:55:07;0.20;;;0.20;;
77625;SDS011;66794;43.764;10.436;2023-02-26T13:03:05;1.35;;;0.45;;
77625;SDS011;66794;43.764;10.436;2023-02-26T13:25:01;1.55;;;0.60;;
77625;SDS011;66794;43.764;10.436;2023-02-26T13:27:36;2.08;;;0.77;;
77625;SDS011;66794;43.764;10.436;2023-02-26T13:30:05;1.92;;;0.47;;
77625;SDS011;66794;43.764;10.436;2023-02-26T13:35:26;0.50;;;0.50;;
77625;SDS011;66794;43.764;10.436;2023-02-26T13:37:53;1.65;;;0.50;;
77625;SDS011;66794;43.764;10.436;2023-02-26T13:48:40;1.25;;;0.60;;
77625;SDS011;66794;43.764;10.436;2023-02-26T13:53:57;1.30;;;0.40;;
77625;SDS011;66794;43.764;10.436;2023-02-26T13:59:34;1.92;;;0.40;;
77625;SDS011;66794;43.764;10.436;2023-02-26T14:10:27;1.48;;;0.60;;
77625;SDS011;66794;43.764;10.436;2023-02-26T14:13:39;0.52;;;0.30;;
77625;SDS011;66794;43.764;10.436;2023-02-26T14:15:49;0.40;;;0.30;;
77625;SDS011;66794;43.764;10.436;2023-02-26T14:24:34;3.30;;;0.60;;
77625;SDS011;66794;43.764;10.436;2023-02-26T14:29:38;2.15;;;0.45;;
77625;SDS011;66794;43.764;10.436;2023-02-26T14:35:13;0.60;;;0.47;;
77625;SDS011;66794;43.764;10.436;2023-02-26T14:37:52;0.63;;;0.32;;
77625;SDS011;66794;43.764;10.436;2023-02-26T14:40:29;2.25;;;0.55;;
77625;SDS011;66794;43.764;10.436;2023-02-26T14:43:02;0.75;;;0.45;;
77625;SDS011;66794;43.764;10.436;2023-02-26T14:45:31;0.47;;;0.40;;
77625;SDS011;66794;43.764;10.436;2023-02-26T14:48:05;0.98;;;0.60;;
77625;SDS011;66794;43.764;10.436;2023-02-26T14:50:40;2.10;;;0.50;;
77625;SDS011;66794;43.764;10.436;2023-02-26T14:55:47;7.93;;;0.75;;
77625;SDS011;66794;43.764;10.436;2023-02-26T15:06:46;0.82;;;0.43;;
77625;SDS011;66794;43.764;10.436;2023-02-26T15:20:24;4.38;;;0.50;;
77625;SDS011;66794;43.764;10.436;2023-02-26T15:25:37;1.17;;;0.52;;
77625;SDS011;66794;43.764;10.436;2023-02-26T15:28:05;1.15;;;0.60;;
77625;SDS011;66794;43.764;10.436;2023-02-26T15:30:35;1.08;;;0.52;;
77625;SDS011;66794;43.764;10.436;2023-02-26T15:33:06;0.65;;;0.40;;
77625;SDS011;66794;43.764;10.436;2023-02-26T15:35:36;1.95;;;0.40;;
77625;SDS011;66794;43.764;10.436;2023-02-26T15:38:02;0.63;;;0.50;;
77625;SDS011;66794;43.764;10.436;2023-02-26T15:40:30;0.50;;;0.40;;
77625;SDS011;66794;43.764;10.436;2023-02-26T15:42:58;0.45;;;0.30;;
77625;SDS011;66794;43.764;10.436;2023-02-26T15:45:36;0.25;;;0.22;;
77625;SDS011;66794;43.764;10.436;2023-02-26T15:48:07;2.15;;;0.30;;
77625;SDS011;66794;43.764;10.436;2023-02-26T15:50:41;0.60;;;0.40;;
77625;SDS011;66794;43.764;10.436;2023-02-26T15:53:16;1.75;;;0.40;;
77625;SDS011;66794;43.764;10.436;2023-02-26T15:55:46;1.48;;;0.50;;
77625;SDS011;66794;43.764;10.436;2023-02-26T15:58:18;0.40;;;0.40;;
77625;SDS011;66794;43.764;10.436;2023-02-26T16:00:51;1.17;;;0.50;;
77625;SDS011;66794;43.764;10.436;2023-02-26T16:03:24;2.15;;;0.90;;
77625;SDS011;66794;43.764;10.436;2023-02-26T16:05:52;1.52;;;0.60;;
77625;SDS011;66794;43.764;10.436;2023-02-26T16:08:18;1.35;;;0.60;;
77625;SDS011;66794;43.764;10.436;2023-02-26T16:10:44;1.65;;;0.70;;
77625;SDS011;66794;43.764;10.436;2023-02-26T16:13:12;1.10;;;0.50;;
77625;SDS011;66794;43.764;10.436;2023-02-26T16:15:41;1.10;;;0.55;;
77625;SDS011;66794;43.764;10.436;2023-02-26T16:18:10;1.60;;;0.70;;
77625;SDS011;66794;43.764;10.436;2023-02-26T16:20:40;1.08;;;0.73;;
77625;SDS011;66794;43.764;10.436;2023-02-26T16:23:10;1.17;;;0.70;;
77625;SDS011;66794;43.764;10.436;2023-02-26T16:25:40;1.05;;;0.65;;
77625;SDS011;66794;43.764;10.436;2023-02-26T16:28:23;1.30;;;0.93;;
77625;SDS011;66794;43.764;10.436;2023-02-26T16:30:53;9.63;;;5.15;;
77625;SDS011;66794;43.764;10.436;2023-02-26T16:33:21;13.65;;;6.93;;
77625;SDS011;66794;43.764;10.436;2023-02-26T16:35:52;1.75;;;1.27;;
77625;SDS011;66794;43.764;10.436;2023-02-26T16:38:29;3.78;;;1.25;;
77625;SDS011;66794;43.764;10.436;2023-02-26T16:40:58;3.38;;;1.70;;
77625;SDS011;66794;43.764;10.436;2023-02-26T16:43:41;3.85;;;2.25;;
77625;SDS011;66794;43.764;10.436;2023-02-26T16:46:22;4.10;;;0.50;;
77625;SDS011;66794;43.764;10.436;2023-02-26T16:48:52;2.08;;;0.98;;
77625;SDS011;66794;43.764;10.436;2023-02-26T16:51:23;2.13;;;0.90;;
77625;SDS011;66794;43.764;10.436;2023-02-26T16:54:01;2.45;;;0.80;;
77625;SDS011;66794;43.764;10.436;2023-02-26T16:56:32;2.70;;;2.00;;
77625;SDS011;66794;43.764;10.436;2023-02-26T16:59:42;6.70;;;1.38;;
77625;SDS011;66794;43.764;10.436;2023-02-26T17:01:51;4.60;;;2.60;;
77625;SDS011;66794;43.764;10.436;2023-02-26T17:04:18;4.88;;;1.65;;
77625;SDS011;66794;43.764;10.436;2023-02-26T17:06:47;8.13;;;1.35;;
77625;SDS011;66794;43.764;10.436;2023-02-26T17:09:24;1.42;;;1.00;;
77625;SDS011;66794;43.764;10.436;2023-02-26T17:12:04;3.55;;;1.88;;
77625;SDS011;66794;43.764;10.436;2023-02-26T17:14:37;2.85;;;1.17;;
77625;SDS011;66794;43.764;10.436;2023-02-26T17:17:08;1.95;;;0.85;;
77625;SDS011;66794;43.764;10.436;2023-02-26T17:19:34;2.33;;;0.98;;
77625;SDS011;66794;43.764;10.436;2023-02-26T17:21:59;5.97;;;0.90;;
77625;SDS011;66794;43.764;10.436;2023-02-26T17:24:30;0.77;;;0.52;;
77625;SDS011;66794;43.764;10.436;2023-02-26T17:26:58;2.22;;;1.23;;
77625;SDS011;66794;43.764;10.436;2023-02-26T17:29:38;2.03;;;0.60;;
77625;SDS011;66794;43.764;10.436;2023-02-26T17:32:27;0.57;;;0.45;;
77625;SDS011;66794;43.764;10.436;2023-02-26T17:34:52;1.85;;;0.70;;
77625;SDS011;66794;43.764;10.436;2023-02-26T17:37:18;2.03;;;0.80;;
77625;SDS011;66794;43.764;10.436;2023-02-26T17:39:44;1.35;;;0.80;;
77625;SDS011;66794;43.764;10.436;2023-02-26T17:42:14;3.28;;;0.75;;
77625;SDS011;66794;43.764;10.436;2023-02-26T17:44:41;3.00;;;1.42;;
77625;SDS011;66794;43.764;10.436;2023-02-26T17:47:14;3.10;;;1.77;;
77625;SDS011;66794;43.764;10.436;2023-02-26T17:49:44;3.35;;;1.83;;
77625;SDS011;66794;43.764;10.436;2023-02-26T17:52:10;4.28;;;1.60;;
77625;SDS011;66794;43.764;10.436;2023-02-26T17:54:36;4.30;;;1.02;;
77625;SDS011;66794;43.764;10.436;2023-02-26T17:57:02;1.88;;;1.10;;
77625;SDS011;66794;43.764;10.436;2023-02-26T17:59:28;8.02;;;2.40;;
77625;SDS011;66794;43.764;10.436;2023-02-26T18:01:53;7.57;;;2.00;;
77625;SDS011;66794;43.764;10.436;2023-02-26T18:04:19;9.40;;;4.88;;
77625;SDS011;66794;43.764;10.436;2023-02-26T18:06:45;9.43;;;4.22;;
77625;SDS011;66794;43.764;10.436;2023-02-26T18:09:11;9.35;;;4.55;;